Time;durP1;ratioP1;P1;durP2;ratioP2;P2;SDS_P1;SDS_P2;PMS_P1;PMS_P2;Temp;Humidity;BMP_temperature;BMP_pressure;BME280_temperature;BME280_humidity;BME280_pressure;Samples;Min_cycle;Max_cycle;Signal;HPM_P1;HPM_P2
2021/07/02 00:00:15;;;;;;;5.05;4.55;;;15.50;99.90;;;;;;4955397;28;20211;-43
2021/07/02 00:02:43;;;;;;;5.07;4.53;;;15.50;99.90;;;;;;4955160;28;20714;-43
2021/07/02 00:05:12;;;;;;;5.72;4.50;;;15.50;99.90;;;;;;4955373;28;20442;-44
2021/07/02 00:07:41;;;;;;;4.65;4.07;;;15.40;99.90;;;;;;4955132;28;20243;-43
2021/07/02 00:10:11;;;;;;;4.57;4.13;;;15.30;99.90;;;;;;4955042;28;20302;-44
2021/07/02 00:12:39;;;;;;;4.97;4.43;;;15.30;99.90;;;;;;4955122;28;20663;-45
2021/07/02 00:15:09;;;;;;;5.25;4.75;;;15.20;99.90;;;;;;4955274;28;20215;-45
2021/07/02 00:17:36;;;;;;;4.60;4.20;;;15.20;99.90;;;;;;4955013;28;20298;-43
2021/07/02 00:20:06;;;;;;;5.70;4.68;;;15.20;99.90;;;;;;4955144;28;20342;-43
2021/07/02 00:22:34;;;;;;;4.80;4.30;;;15.20;99.90;;;;;;4954890;28;20314;-44
2021/07/02 00:25:05;;;;;;;4.65;4.10;;;15.10;99.90;;;;;;4954780;28;20743;-45
2021/07/02 00:27:33;;;;;;;4.85;4.43;;;15.10;99.90;;;;;;4954669;28;20684;-44
2021/07/02 00:30:01;;;;;;;4.38;3.97;;;15.00;99.90;;;;;;4954762;28;20782;-42
2021/07/02 00:32:29;;;;;;;6.85;5.32;;;15.00;99.90;;;;;;4954695;28;20242;-47
2021/07/02 00:34:57;;;;;;;5.68;5.00;;;15.00;99.90;;;;;;4954630;28;20207;-43
2021/07/02 00:37:25;;;;;;;4.88;4.32;;;14.90;99.90;;;;;;4954651;28;20217;-44
2021/07/02 00:39:53;;;;;;;6.47;3.83;;;14.90;99.90;;;;;;4954890;28;20307;-49
2021/07/02 00:42:22;;;;;;;6.47;4.97;;;14.80;99.90;;;;;;4954741;28;20231;-43
2021/07/02 00:44:50;;;;;;;5.13;4.63;;;14.80;99.90;;;;;;4954511;28;20310;-43
2021/07/02 00:47:19;;;;;;;6.15;5.32;;;14.70;99.90;;;;;;4954245;28;20250;-44
2021/07/02 00:49:47;;;;;;;5.15;4.63;;;14.70;99.90;;;;;;4954457;28;20664;-42
2021/07/02 00:52:16;;;;;;;8.10;5.55;;;14.70;99.90;;;;;;4954478;28;20226;-44
2021/07/02 00:54:47;;;;;;;8.23;6.22;;;14.70;99.90;;;;;;4954433;28;20226;-48
2021/07/02 00:57:15;;;;;;;5.70;5.10;;;14.60;99.90;;;;;;4954554;28;20307;-46
2021/07/02 00:59:44;;;;;;;5.05;4.55;;;14.60;99.90;;;;;;4954521;28;20234;-44
2021/07/02 01:02:13;;;;;;;5.22;4.53;;;14.60;99.90;;;;;;4954362;28;20231;-46
2021/07/02 01:04:43;;;;;;;5.95;5.18;;;14.50;99.90;;;;;;4954355;28;20221;-48
2021/07/02 01:07:11;;;;;;;6.30;4.90;;;14.50;99.90;;;;;;4954246;28;20642;-45
2021/07/02 01:09:41;;;;;;;7.28;4.93;;;14.50;99.90;;;;;;4954402;28;20310;-49
2021/07/02 01:12:11;;;;;;;8.52;5.55;;;14.50;99.90;;;;;;4954334;28;20212;-46
2021/07/02 01:14:39;;;;;;;7.70;6.90;;;14.50;99.90;;;;;;4954198;28;20625;-44
2021/07/02 01:17:08;;;;;;;5.18;4.68;;;14.50;99.90;;;;;;4954170;28;20215;-42
2021/07/02 01:19:37;;;;;;;5.20;4.72;;;14.60;99.90;;;;;;4954093;28;20678;-47
2021/07/02 01:22:06;;;;;;;6.72;5.47;;;14.60;99.90;;;;;;4954124;28;20840;-42
2021/07/02 01:24:34;;;;;;;8.57;6.78;;;14.60;99.90;;;;;;4954199;28;20211;-43
2021/07/02 01:27:02;;;;;;;6.35;5.72;;;14.60;99.90;;;;;;4954078;28;20675;-47
2021/07/02 01:29:30;;;;;;;6.10;4.70;;;14.60;99.90;;;;;;4954328;28;20314;-43
2021/07/02 01:31:58;;;;;;;6.80;5.10;;;14.60;99.90;;;;;;4954063;28;20311;-44
2021/07/02 01:34:26;;;;;;;5.90;4.45;;;14.70;99.90;;;;;;4954095;28;20211;-45
2021/07/02 01:36:54;;;;;;;6.15;4.28;;;14.70;99.90;;;;;;4953712;28;20207;-43
2021/07/02 01:39:23;;;;;;;6.13;5.53;;;14.70;99.90;;;;;;4954190;28;20236;-43
2021/07/02 01:41:51;;;;;;;6.15;5.20;;;14.70;99.90;;;;;;4953957;28;20242;-45
2021/07/02 01:44:19;;;;;;;7.25;5.07;;;14.70;99.90;;;;;;4953993;28;20231;-43
2021/07/02 01:46:48;;;;;;;6.47;5.82;;;14.70;99.90;;;;;;4953941;28;20399;-44
2021/07/02 01:49:16;;;;;;;8.25;5.63;;;14.70;99.90;;;;;;4954075;28;20699;-47
2021/07/02 01:51:44;;;;;;;4.90;4.50;;;14.70;99.90;;;;;;4953901;28;20243;-43
2021/07/02 01:54:12;;;;;;;6.13;5.13;;;14.70;99.90;;;;;;4953801;28;20208;-44
2021/07/02 01:56:47;;;;;;;7.13;5.90;;;14.70;99.90;;;;;;4953641;28;20317;-44
2021/07/02 01:59:16;;;;;;;6.45;5.18;;;14.80;99.90;;;;;;4953811;28;20636;-46
2021/07/02 02:01:44;;;;;;;5.70;5.20;;;14.80;99.90;;;;;;4953926;28;20302;-43
2021/07/02 02:04:12;;;;;;;7.40;5.88;;;14.80;99.90;;;;;;4953764;28;20231;-45
2021/07/02 02:06:41;;;;;;;5.80;5.18;;;14.80;99.90;;;;;;4953767;28;20234;-45
2021/07/02 02:09:09;;;;;;;6.80;5.28;;;14.80;99.90;;;;;;4953710;28;20656;-45
2021/07/02 02:11:37;;;;;;;5.80;5.03;;;14.80;99.90;;;;;;4953906;28;20254;-47
2021/07/02 02:14:10;;;;;;;8.40;5.32;;;14.80;99.90;;;;;;4953922;28;20368;-47
2021/07/02 02:16:41;;;;;;;6.22;5.40;;;14.80;99.90;;;;;;4953607;28;20215;-44
2021/07/02 02:19:09;;;;;;;6.10;5.50;;;14.80;99.90;;;;;;4953705;28;20219;-43
2021/07/02 02:21:36;;;;;;;10.18;5.38;;;14.80;99.90;;;;;;4953449;28;20229;-48
2021/07/02 02:24:05;;;;;;;5.47;4.53;;;14.90;99.90;;;;;;4953756;28;20235;-45
2021/07/02 02:26:33;;;;;;;5.07;4.57;;;14.90;99.90;;;;;;4953625;28;20299;-44
2021/07/02 02:29:01;;;;;;;7.50;5.55;;;14.90;99.90;;;;;;4953609;28;20319;-44
2021/07/02 02:31:31;;;;;;;5.88;5.28;;;14.90;99.90;;;;;;4953481;28;20620;-45
2021/07/02 02:33:59;;;;;;;6.82;6.07;;;14.90;99.90;;;;;;4953550;28;20243;-42
2021/07/02 02:36:27;;;;;;;7.32;5.80;;;14.90;99.90;;;;;;4953528;28;20215;-48
2021/07/02 02:38:55;;;;;;;6.78;5.40;;;14.90;99.90;;;;;;4953658;28;20293;-44
2021/07/02 02:41:23;;;;;;;8.38;5.72;;;14.90;99.90;;;;;;4953465;28;20214;-42
2021/07/02 02:43:51;;;;;;;7.53;6.60;;;14.90;99.90;;;;;;4953149;28;20231;-43
2021/07/02 02:46:19;;;;;;;6.45;5.85;;;14.90;99.90;;;;;;4953351;28;20857;-45
2021/07/02 02:48:49;;;;;;;6.35;5.38;;;14.90;99.90;;;;;;4954898;28;20278;-43
2021/07/02 02:51:17;;;;;;;7.45;6.35;;;14.90;99.90;;;;;;4956830;28;20219;-47
2021/07/02 02:53:45;;;;;;;8.88;6.28;;;14.90;99.90;;;;;;4956616;28;20250;-46
2021/07/02 02:56:14;;;;;;;6.13;5.53;;;14.90;99.90;;;;;;4959821;28;20279;-46
2021/07/02 02:58:42;;;;;;;5.95;5.35;;;14.90;99.90;;;;;;4960930;28;20299;-47
2021/07/02 03:01:10;;;;;;;6.60;5.13;;;14.90;99.90;;;;;;4957414;28;20413;-46
2021/07/02 03:03:38;;;;;;;5.35;4.55;;;14.90;99.90;;;;;;4957512;28;20262;-44
2021/07/02 03:06:07;;;;;;;8.75;6.28;;;14.90;99.90;;;;;;4956901;28;20208;-43
2021/07/02 03:08:35;;;;;;;10.85;6.57;;;14.90;99.90;;;;;;4956753;28;20301;-45
2021/07/02 03:11:03;;;;;;;7.20;6.10;;;14.90;99.90;;;;;;4956358;28;20302;-44
2021/07/02 03:13:32;;;;;;;7.07;6.38;;;14.90;99.90;;;;;;4956038;28;20243;-40
2021/07/02 03:16:00;;;;;;;7.88;5.90;;;14.90;99.90;;;;;;4956473;28;20200;-40
2021/07/02 03:18:28;;;;;;;8.90;6.72;;;14.90;99.90;;;;;;4956487;28;20254;-41
2021/07/02 03:20:56;;;;;;;6.78;5.53;;;14.80;99.90;;;;;;4956292;28;20215;-46
2021/07/02 03:23:25;;;;;;;6.45;5.72;;;14.80;99.90;;;;;;4956140;28;20725;-43
2021/07/02 03:25:53;;;;;;;7.03;6.32;;;14.80;99.90;;;;;;4956206;28;20647;-45
2021/07/02 03:28:21;;;;;;;8.07;6.03;;;14.80;99.90;;;;;;4955919;28;20211;-44
2021/07/02 03:30:49;;;;;;;7.63;6.55;;;14.80;99.90;;;;;;4956134;28;20254;-43
2021/07/02 03:33:16;;;;;;;7.13;6.43;;;14.70;99.90;;;;;;4956068;28;20691;-43
2021/07/02 03:35:44;;;;;;;11.32;6.90;;;14.70;99.90;;;;;;4956007;28;20483;-45
2021/07/02 03:38:12;;;;;;;7.22;6.30;;;14.70;99.90;;;;;;4955670;28;20363;-45
2021/07/02 03:40:42;;;;;;;8.93;6.65;;;14.70;99.90;;;;;;4955637;28;20659;-44
2021/07/02 03:43:10;;;;;;;6.75;6.15;;;14.80;99.90;;;;;;4955722;28;20685;-45
2021/07/02 03:45:37;;;;;;;7.78;6.18;;;14.80;99.90;;;;;;4955793;28;20216;-42
2021/07/02 03:48:06;;;;;;;7.57;6.75;;;14.80;99.90;;;;;;4955581;28;20246;-45
2021/07/02 03:50:34;;;;;;;8.00;6.65;;;14.80;99.90;;;;;;4955567;28;20302;-46
2021/07/02 03:53:02;;;;;;;7.88;6.03;;;14.70;99.90;;;;;;4955754;28;20226;-43
2021/07/02 03:55:30;;;;;;;7.95;6.60;;;14.80;99.90;;;;;;4955326;28;20637;-43
2021/07/02 03:58:00;;;;;;;7.70;6.20;;;14.70;99.90;;;;;;4955506;28;20255;-42
2021/07/02 04:00:28;;;;;;;11.52;6.75;;;14.70;99.90;;;;;;4955185;28;20211;-46
2021/07/02 04:02:56;;;;;;;6.22;5.63;;;14.80;99.90;;;;;;4955418;28;20496;-43
2021/07/02 04:05:24;;;;;;;9.07;6.28;;;14.80;99.90;;;;;;4955049;28;20235;-42
2021/07/02 04:07:52;;;;;;;8.27;6.20;;;14.80;99.90;;;;;;4954861;28;20302;-43
2021/07/02 04:10:20;;;;;;;7.07;6.30;;;14.80;99.90;;;;;;4955040;28;20298;-42
2021/07/02 04:12:48;;;;;;;7.05;6.28;;;14.80;99.90;;;;;;4955390;28;20624;-43
2021/07/02 04:15:17;;;;;;;8.32;6.15;;;14.80;99.90;;;;;;4956036;28;20207;-42
2021/07/02 04:17:45;;;;;;;7.15;6.47;;;14.80;99.90;;;;;;4955764;28;20222;-41
2021/07/02 04:20:14;;;;;;;7.90;7.10;;;14.80;99.90;;;;;;4955105;28;20211;-42
2021/07/02 04:22:42;;;;;;;8.82;7.63;;;14.90;99.90;;;;;;4955466;28;20195;-42
2021/07/02 04:25:11;;;;;;;7.25;6.65;;;14.90;99.90;;;;;;4954969;28;20278;-41
2021/07/02 04:27:40;;;;;;;7.15;5.85;;;14.90;99.90;;;;;;4955234;28;20298;-41
2021/07/02 04:30:10;;;;;;;8.27;6.38;;;14.90;99.90;;;;;;4954741;28;20219;-41
2021/07/02 04:32:39;;;;;;;6.22;5.63;;;15.00;99.90;;;;;;4954941;28;20302;-45
2021/07/02 04:35:09;;;;;;;8.63;7.00;;;15.00;99.90;;;;;;4955255;28;20203;-44
2021/07/02 04:37:38;;;;;;;6.22;5.63;;;15.10;99.90;;;;;;4954988;28;20246;-48
2021/07/02 04:40:09;;;;;;;7.65;6.80;;;15.10;99.90;;;;;;4955244;28;20694;-47
2021/07/02 04:42:38;;;;;;;7.78;6.60;;;15.10;99.90;;;;;;4954828;28;20306;-44
2021/07/02 04:45:07;;;;;;;7.85;7.10;;;15.20;99.90;;;;;;4954533;28;20318;-44
2021/07/02 04:47:36;;;;;;;7.07;6.38;;;15.20;99.90;;;;;;4954857;29;20243;-43
2021/07/02 04:50:08;;;;;;;9.70;7.35;;;15.30;99.90;;;;;;4955674;28;20583;-47
2021/07/02 04:52:36;;;;;;;6.93;6.22;;;15.30;99.90;;;;;;4955634;28;20675;-47
2021/07/02 04:55:04;;;;;;;8.38;6.75;;;15.30;99.90;;;;;;4954756;28;20214;-43
2021/07/02 04:57:32;;;;;;;9.10;8.20;;;15.30;99.90;;;;;;4954321;28;20251;-50
2021/07/02 05:00:02;;;;;;;7.63;6.60;;;15.40;99.90;;;;;;4954190;28;20219;-45
2021/07/02 05:02:30;;;;;;;7.45;6.75;;;15.40;99.90;;;;;;4954778;28;20301;-45
2021/07/02 05:04:58;;;;;;;8.43;6.97;;;15.50;99.90;;;;;;4954340;28;20235;-49
2021/07/02 05:07:27;;;;;;;8.10;6.80;;;15.50;99.90;;;;;;4954105;28;20742;-50
2021/07/02 05:09:55;;;;;;;11.48;7.50;;;15.60;99.90;;;;;;4954389;28;20225;-43
2021/07/02 05:12:23;;;;;;;7.68;6.70;;;15.60;99.90;;;;;;4954403;28;20311;-48
2021/07/02 05:14:51;;;;;;;8.93;7.28;;;15.60;99.90;;;;;;4954469;28;20208;-47
2021/07/02 05:17:19;;;;;;;11.95;7.15;;;15.70;99.90;;;;;;4954791;28;20219;-48
2021/07/02 05:19:47;;;;;;;10.48;7.03;;;15.70;99.90;;;;;;4954074;28;20227;-46
2021/07/02 05:22:19;;;;;;;8.35;7.45;;;15.80;99.90;;;;;;4953951;28;20617;-45
2021/07/02 05:24:49;;;;;;;8.05;7.25;;;15.80;99.90;;;;;;4953696;28;20231;-43
2021/07/02 05:27:17;;;;;;;11.23;7.28;;;15.80;99.90;;;;;;4953790;28;20234;-46
2021/07/02 05:29:46;;;;;;;8.88;6.90;;;15.80;99.90;;;;;;4953984;28;20302;-44
2021/07/02 05:32:14;;;;;;;9.05;7.28;;;15.80;99.90;;;;;;4953765;28;20703;-47
2021/07/02 05:35:02;;;;;;;7.75;6.63;;;15.80;99.90;;;;;;4953886;28;20219;-44
2021/07/02 05:37:30;;;;;;;8.85;7.35;;;15.80;99.90;;;;;;4953736;28;20231;-43
2021/07/02 05:39:59;;;;;;;8.40;7.05;;;15.80;99.90;;;;;;4953808;28;20218;-43
2021/07/02 05:42:32;;;;;;;8.30;6.85;;;15.80;99.90;;;;;;4953616;28;20627;-43
2021/07/02 05:44:59;;;;;;;7.55;6.80;;;15.70;99.90;;;;;;4953642;28;20651;-43
2021/07/02 05:47:27;;;;;;;8.60;7.75;;;15.70;99.90;;;;;;4953678;28;20239;-44
2021/07/02 05:49:56;;;;;;;7.47;6.70;;;15.70;99.90;;;;;;4953576;28;20249;-45
2021/07/02 05:52:23;;;;;;;8.50;6.63;;;15.80;99.90;;;;;;4953940;28;20215;-45
2021/07/02 05:54:53;;;;;;;8.50;6.82;;;15.90;99.90;;;;;;4953475;28;20203;-45
2021/07/02 05:57:22;;;;;;;7.03;6.32;;;15.90;99.90;;;;;;4953424;28;20644;-45
2021/07/02 05:59:50;;;;;;;7.53;6.38;;;16.00;99.90;;;;;;4953494;28;20211;-48
2021/07/02 06:02:18;;;;;;;8.05;6.00;;;16.00;99.90;;;;;;4953321;28;20223;-45
2021/07/02 06:04:46;;;;;;;7.00;6.30;;;16.10;99.90;;;;;;4952345;28;20326;-50
2021/07/02 06:07:18;;;;;;;8.18;6.75;;;16.30;99.90;;;;;;4953210;28;20314;-44
2021/07/02 06:09:46;;;;;;;8.65;6.63;;;16.50;99.90;;;;;;4953307;28;20222;-45
2021/07/02 06:12:14;;;;;;;9.50;7.03;;;16.60;99.90;;;;;;4953191;28;20310;-48
2021/07/02 06:14:43;;;;;;;7.70;6.70;;;16.80;99.90;;;;;;4953211;28;20222;-50
2021/07/02 06:17:11;;;;;;;7.88;6.50;;;16.90;99.90;;;;;;4953142;28;20219;-48
2021/07/02 06:19:39;;;;;;;8.43;6.72;;;17.00;99.90;;;;;;4953572;28;20306;-46
2021/07/02 06:22:06;;;;;;;6.43;5.82;;;17.10;99.90;;;;;;4954271;28;20310;-45
2021/07/02 06:24:34;;;;;;;7.88;5.63;;;17.20;99.90;;;;;;4957161;28;20271;-46
2021/07/02 06:27:03;;;;;;;8.05;5.93;;;17.30;99.90;;;;;;4956735;28;20299;-45
2021/07/02 06:29:31;;;;;;;8.18;5.60;;;17.50;99.90;;;;;;4956713;28;20334;-43
2021/07/02 06:32:00;;;;;;;10.38;5.90;;;17.60;99.90;;;;;;4956978;28;20294;-47
2021/07/02 06:34:28;;;;;;;6.20;5.60;;;17.50;99.90;;;;;;4957027;28;20683;-44
2021/07/02 06:36:56;;;;;;;7.25;6.18;;;17.50;99.90;;;;;;4956592;28;20742;-45
2021/07/02 06:39:24;;;;;;;11.15;6.07;;;17.40;99.90;;;;;;4956530;29;20211;-44
2021/07/02 06:41:51;;;;;;;6.78;5.90;;;17.50;99.90;;;;;;4956469;28;20639;-44
2021/07/02 06:44:19;;;;;;;7.47;5.95;;;17.50;99.90;;;;;;4956354;28;20686;-45
2021/07/02 06:46:47;;;;;;;6.20;5.45;;;17.50;99.90;;;;;;4956327;28;20374;-47
2021/07/02 06:49:17;;;;;;;6.78;5.68;;;17.60;99.90;;;;;;4956498;28;20610;-44
2021/07/02 06:51:45;;;;;;;10.18;6.32;;;17.80;99.90;;;;;;4956467;28;20251;-46
2021/07/02 06:54:13;;;;;;;6.40;5.80;;;18.00;99.90;;;;;;4956753;28;20207;-45
2021/07/02 06:57:00;;;;;;;9.52;6.20;;;18.10;99.90;;;;;;4956335;28;20216;-45
2021/07/02 06:59:28;;;;;;;7.75;6.18;;;18.20;99.90;;;;;;4956445;28;20215;-46
2021/07/02 07:01:57;;;;;;;8.15;5.57;;;18.30;99.90;;;;;;4956086;28;20226;-43
2021/07/02 07:04:29;;;;;;;7.57;6.13;;;18.30;99.90;;;;;;4956041;28;20218;-45
2021/07/02 07:06:56;;;;;;;6.75;5.47;;;18.40;99.90;;;;;;4955994;28;20238;-44
2021/07/02 07:09:24;;;;;;;6.78;6.13;;;18.40;99.90;;;;;;4955900;28;20639;-43
2021/07/02 07:11:54;;;;;;;7.75;6.03;;;18.40;99.90;;;;;;4956106;28;20234;-45
2021/07/02 07:14:23;;;;;;;7.57;6.78;;;18.40;99.90;;;;;;4956103;28;20357;-42
2021/07/02 07:16:50;;;;;;;6.32;5.72;;;18.40;99.90;;;;;;4956014;28;20561;-42
2021/07/02 07:19:22;;;;;;;6.35;5.75;;;18.30;99.90;;;;;;4955879;28;20211;-46
2021/07/02 07:21:51;;;;;;;8.77;5.78;;;18.30;99.90;;;;;;4955680;28;20211;-48
2021/07/02 07:24:19;;;;;;;6.70;5.38;;;18.30;99.90;;;;;;4955973;28;20218;-44
2021/07/02 07:26:47;;;;;;;6.72;6.07;;;18.40;99.90;;;;;;4955885;28;20265;-46
2021/07/02 07:29:16;;;;;;;5.60;5.10;;;18.40;99.90;;;;;;4956935;28;20310;-45
2021/07/02 07:31:44;;;;;;;6.20;4.82;;;18.50;99.90;;;;;;4955864;28;20258;-47
2021/07/02 07:34:13;;;;;;;7.53;6.82;;;18.60;99.90;;;;;;4954834;28;20306;-44
2021/07/02 07:36:41;;;;;;;5.50;5.00;;;18.80;99.90;;;;;;4955861;28;20216;-46
2021/07/02 07:39:10;;;;;;;6.70;6.10;;;18.90;99.90;;;;;;4955714;28;20739;-43
2021/07/02 07:41:38;;;;;;;6.03;5.53;;;18.90;99.90;;;;;;4955891;28;20216;-45
2021/07/02 07:44:06;;;;;;;6.53;5.50;;;18.80;99.90;;;;;;4955852;28;20294;-42
2021/07/02 07:46:34;;;;;;;6.15;5.53;;;18.70;99.90;;;;;;4955110;28;20638;-42
2021/07/02 07:49:02;;;;;;;7.47;5.65;;;18.70;99.90;;;;;;4954858;28;20220;-43
2021/07/02 07:51:36;;;;;;;6.40;5.80;;;18.70;99.90;;;;;;4955248;28;20302;-45
2021/07/02 07:54:04;;;;;;;8.23;6.03;;;18.80;99.90;;;;;;4955417;28;20213;-48
2021/07/02 07:56:33;;;;;;;8.57;5.63;;;19.10;99.90;;;;;;4955283;28;20222;-48
2021/07/02 07:59:01;;;;;;;6.85;5.55;;;19.30;99.90;;;;;;4954918;28;20218;-45
2021/07/02 08:01:29;;;;;;;5.85;5.32;;;19.30;99.90;;;;;;4955233;28;20229;-45
2021/07/02 08:03:57;;;;;;;5.85;5.35;;;19.30;99.90;;;;;;4955257;28;20310;-44
2021/07/02 08:06:25;;;;;;;7.38;4.97;;;19.30;99.90;;;;;;4954863;28;20241;-43
2021/07/02 08:08:55;;;;;;;5.05;4.57;;;19.20;99.90;;;;;;4954991;28;20353;-42
2021/07/02 08:11:22;;;;;;;5.55;4.68;;;19.20;99.90;;;;;;4954845;28;20743;-43
2021/07/02 08:13:52;;;;;;;5.63;5.13;;;19.10;99.90;;;;;;4954816;28;20657;-42
2021/07/02 08:16:20;;;;;;;6.25;5.00;;;19.20;99.90;;;;;;4955009;28;20667;-45
2021/07/02 08:18:48;;;;;;;4.75;4.35;;;19.10;99.90;;;;;;4954997;28;20247;-45
2021/07/02 08:21:15;;;;;;;4.97;4.57;;;19.10;99.80;;;;;;4954951;28;20762;-43
2021/07/02 08:23:43;;;;;;;5.10;4.50;;;19.10;99.70;;;;;;4955206;28;20305;-49
2021/07/02 08:26:13;;;;;;;5.10;4.60;;;19.10;99.30;;;;;;4954947;28;20339;-48
2021/07/02 08:31:27;;;;;;;5.78;5.18;;;19.40;98.40;;;;;;4955649;28;20283;-47
2021/07/02 08:33:55;;;;;;;5.32;4.82;;;19.50;98.30;;;;;;4955054;28;20215;-45
2021/07/02 08:36:23;;;;;;;5.03;4.47;;;19.70;97.90;;;;;;4954925;28;20210;-46
2021/07/02 08:38:51;;;;;;;5.57;4.97;;;19.90;97.70;;;;;;4954774;28;20551;-45
2021/07/02 08:41:19;;;;;;;5.47;4.93;;;20.10;97.10;;;;;;4954780;28;20213;-45
2021/07/02 08:43:48;;;;;;;4.93;4.50;;;20.10;96.70;;;;;;4954747;28;20230;-45
2021/07/02 08:46:20;;;;;;;5.47;4.97;;;20.00;96.20;;;;;;4953813;28;20290;-43
2021/07/02 08:48:50;;;;;;;4.70;4.20;;;20.00;95.90;;;;;;4954336;28;20243;-45
2021/07/02 08:51:19;;;;;;;5.20;4.70;;;19.90;96.00;;;;;;4954857;28;20302;-43
2021/07/02 08:53:47;;;;;;;4.80;4.40;;;20.00;95.80;;;;;;4954596;28;20243;-48
2021/07/02 08:56:19;;;;;;;5.10;4.60;;;20.30;95.70;;;;;;4954389;28;20306;-43
2021/07/02 08:58:47;;;;;;;6.05;5.20;;;20.50;95.30;;;;;;4954323;28;20294;-45
2021/07/02 09:01:41;;;;;;;4.63;4.22;;;20.60;95.10;;;;;;4954124;28;20294;-48
2021/07/02 09:04:18;;;;;;;6.10;4.97;;;20.40;94.90;;;;;;4954317;28;20226;-47
2021/07/02 09:07:03;;;;;;;4.80;4.30;;;20.40;94.90;;;;;;4953997;28;20227;-42
2021/07/02 09:09:49;;;;;;;4.88;4.38;;;20.40;94.80;;;;;;4953986;28;20222;-43
2021/07/02 09:12:18;;;;;;;4.93;4.18;;;20.70;94.80;;;;;;4954012;28;20218;-47
2021/07/02 09:15:04;;;;;;;5.35;4.80;;;20.80;94.50;;;;;;4954040;28;20306;-47
2021/07/02 09:17:37;;;;;;;5.43;4.65;;;20.80;94.10;;;;;;4953971;28;20215;-44
2021/07/02 09:20:09;;;;;;;6.50;5.50;;;20.80;94.10;;;;;;4953950;28;20207;-48
2021/07/02 09:22:42;;;;;;;9.10;4.90;;;20.60;94.00;;;;;;4953743;28;20306;-49
2021/07/02 09:25:13;;;;;;;5.63;5.13;;;20.30;94.40;;;;;;4953896;28;20215;-47
2021/07/02 09:27:43;;;;;;;7.43;5.15;;;20.30;94.60;;;;;;4953996;28;20322;-45
2021/07/02 09:30:14;;;;;;;5.55;4.07;;;20.60;94.40;;;;;;4953663;28;20222;-47
2021/07/02 09:32:58;;;;;;;6.53;5.32;;;20.60;94.00;;;;;;4953532;28;20207;-43
2021/07/02 09:35:35;;;;;;;5.38;4.68;;;20.60;93.80;;;;;;4953705;28;20218;-45
2021/07/02 09:38:05;;;;;;;6.07;5.47;;;20.40;94.20;;;;;;4953795;28;20207;-49
2021/07/02 09:40:34;;;;;;;5.82;4.78;;;20.20;94.50;;;;;;4953791;28;20217;-43
2021/07/02 09:43:06;;;;;;;4.72;4.20;;;20.20;94.80;;;;;;4954029;28;20231;-43
2021/07/02 09:45:34;;;;;;;5.30;4.85;;;20.10;94.50;;;;;;4953501;28;20250;-46
2021/07/02 09:48:10;;;;;;;5.88;5.28;;;20.10;94.00;;;;;;4953135;28;20726;-44
2021/07/02 09:50:44;;;;;;;5.22;4.72;;;20.20;93.60;;;;;;4953553;28;20290;-46
2021/07/02 09:53:12;;;;;;;8.80;4.45;;;20.50;93.00;;;;;;4953665;28;20666;-44
2021/07/02 09:55:45;;;;;;;5.80;4.75;;;20.90;92.50;;;;;;4953377;28;20306;-45
2021/07/02 09:58:15;;;;;;;5.30;4.90;;;21.20;91.80;;;;;;4956197;28;20211;-48
2021/07/02 10:00:47;;;;;;;5.28;3.83;;;21.30;91.70;;;;;;4957581;28;20567;-45
2021/07/02 10:03:15;;;;;;;4.32;4.03;;;21.10;91.70;;;;;;4957317;28;20306;-45
2021/07/02 10:05:53;;;;;;;3.78;3.47;;;20.90;91.90;;;;;;4957295;28;20218;-45
2021/07/02 10:08:23;;;;;;;4.72;4.03;;;20.90;91.70;;;;;;4956986;28;20227;-43
2021/07/02 10:10:52;;;;;;;5.13;4.72;;;20.70;91.70;;;;;;4957374;28;20770;-46
2021/07/02 10:13:22;;;;;;;5.15;4.65;;;20.60;91.80;;;;;;4957274;28;20335;-47
2021/07/02 10:15:51;;;;;;;4.97;4.45;;;20.50;91.80;;;;;;4957404;28;20222;-43
2021/07/02 10:18:21;;;;;;;5.20;4.70;;;20.60;91.90;;;;;;4957116;28;20215;-46
2021/07/02 10:20:50;;;;;;;5.88;4.80;;;20.80;91.70;;;;;;4956996;28;20251;-45
2021/07/02 10:23:26;;;;;;;5.10;4.70;;;21.20;91.50;;;;;;4957400;28;20553;-44
2021/07/02 10:25:56;;;;;;;5.10;4.50;;;21.60;90.20;;;;;;4956968;28;20654;-49
2021/07/02 10:28:25;;;;;;;5.20;4.30;;;21.80;89.60;;;;;;4956900;28;20262;-46
2021/07/02 10:30:54;;;;;;;4.07;3.75;;;21.90;88.40;;;;;;4957011;28;20767;-51
2021/07/02 10:33:24;;;;;;;4.93;3.90;;;21.60;88.50;;;;;;4957111;28;20310;-44
2021/07/02 10:35:57;;;;;;;4.10;3.70;;;21.30;89.00;;;;;;4957416;28;20219;-47
2021/07/02 10:38:34;;;;;;;4.60;4.30;;;21.30;89.30;;;;;;4956992;28;20374;-44
2021/07/02 10:41:09;;;;;;;5.10;4.60;;;21.50;88.00;;;;;;4956650;28;20302;-46
2021/07/02 10:43:38;;;;;;;4.53;4.13;;;21.50;87.90;;;;;;4956568;28;20253;-48
2021/07/02 10:46:11;;;;;;;4.47;4.10;;;21.60;88.30;;;;;;4956687;28;20251;-45
2021/07/02 10:49:07;;;;;;;4.95;3.78;;;21.80;88.00;;;;;;4956259;28;20346;-44
2021/07/02 10:51:55;;;;;;;4.93;4.18;;;22.20;86.20;;;;;;4944418;28;20755;-44
2021/07/02 10:54:36;;;;;;;5.63;3.67;;;22.50;85.40;;;;;;4956800;28;20579;-45
2021/07/02 10:57:13;;;;;;;6.53;4.97;;;22.80;81.80;;;;;;4956382;28;20259;-43
2021/07/02 11:00:05;;;;;;;6.63;3.90;;;23.00;82.00;;;;;;4956683;28;20297;-45
2021/07/02 11:02:33;;;;;;;5.68;5.18;;;22.90;81.90;;;;;;4956290;28;20251;-46
2021/07/02 11:05:03;;;;;;;4.68;4.22;;;22.50;82.80;;;;;;4956581;28;20215;-45
2021/07/02 11:07:44;;;;;;;8.80;4.03;;;22.20;84.30;;;;;;4956217;28;20246;-47
2021/07/02 11:10:12;;;;;;;4.13;3.72;;;21.80;84.80;;;;;;4955363;28;20246;-43
2021/07/02 11:13:00;;;;;;;4.70;4.30;;;21.40;86.20;;;;;;4956238;28;20219;-47
2021/07/02 11:15:29;;;;;;;9.75;4.78;;;21.20;87.10;;;;;;4956363;28;20243;-45
2021/07/02 11:18:16;;;;;;;4.72;4.28;;;21.30;87.20;;;;;;4955945;28;20826;-43
2021/07/02 11:20:45;;;;;;;4.28;3.88;;;21.70;85.10;;;;;;4956159;28;20391;-42
2021/07/02 11:23:23;;;;;;;4.47;4.07;;;22.00;85.20;;;;;;4962617;28;20726;-43
2021/07/02 11:26:04;;;;;;;4.25;3.83;;;22.20;84.00;;;;;;4956042;28;20215;-45
2021/07/02 11:28:47;;;;;;;4.38;3.97;;;22.30;84.00;;;;;;4955808;28;20318;-43
2021/07/02 11:31:17;;;;;;;7.63;4.10;;;22.20;84.20;;;;;;4955588;28;20302;-43
2021/07/02 11:33:47;;;;;;;5.00;4.40;;;22.00;85.20;;;;;;4955670;28;20212;-47
2021/07/02 11:36:20;;;;;;;4.43;4.05;;;21.90;85.70;;;;;;4956060;28;20229;-44
2021/07/02 11:38:55;;;;;;;4.35;4.05;;;21.90;86.00;;;;;;4955878;28;20211;-43
2021/07/02 11:41:30;;;;;;;4.45;4.05;;;22.00;85.30;;;;;;4955647;28;20237;-44
2021/07/02 11:44:02;;;;;;;4.75;4.13;;;22.10;83.10;;;;;;4954910;28;20653;-46
2021/07/02 11:46:31;;;;;;;4.75;4.35;;;22.20;83.00;;;;;;4955600;28;20294;-42
2021/07/02 11:49:01;;;;;;;8.55;4.70;;;22.30;82.40;;;;;;4955669;28;20235;-46
2021/07/02 11:51:32;;;;;;;5.47;4.95;;;22.30;83.20;;;;;;4955751;28;20303;-50
2021/07/02 11:54:04;;;;;;;4.85;4.22;;;22.30;83.90;;;;;;4955370;28;20211;-43
2021/07/02 11:56:33;;;;;;;8.20;4.75;;;22.30;84.10;;;;;;4955903;28;20298;-46
2021/07/02 11:59:03;;;;;;;4.72;4.28;;;22.50;84.30;;;;;;4955475;28;20211;-49
2021/07/02 12:01:38;;;;;;;4.82;4.15;;;22.50;83.80;;;;;;4955136;28;20230;-47
2021/07/02 12:04:25;;;;;;;4.93;3.83;;;22.60;83.60;;;;;;4955332;28;20230;-46
2021/07/02 12:06:53;;;;;;;4.75;4.22;;;23.00;82.30;;;;;;4955112;28;20215;-48
2021/07/02 12:09:27;;;;;;;4.38;3.97;;;23.20;80.90;;;;;;4954986;28;20241;-45
2021/07/02 12:11:57;;;;;;;4.10;3.80;;;23.30;79.70;;;;;;4955075;28;20212;-46
2021/07/02 12:14:27;;;;;;;4.18;3.88;;;23.20;78.80;;;;;;4954999;28;20542;-44
2021/07/02 12:16:57;;;;;;;4.15;3.75;;;23.10;79.70;;;;;;4955126;28;20302;-45
2021/07/02 12:19:26;;;;;;;4.72;4.32;;;22.90;80.40;;;;;;4954823;28;20246;-46
2021/07/02 12:21:56;;;;;;;4.00;3.65;;;22.80;80.60;;;;;;4954930;28;20215;-43
2021/07/02 12:24:29;;;;;;;4.85;4.00;;;22.70;80.60;;;;;;4955082;28;20302;-46
2021/07/02 12:26:58;;;;;;;5.43;4.13;;;22.60;80.70;;;;;;4954892;28;20215;-45
2021/07/02 12:29:27;;;;;;;5.85;3.97;;;22.80;80.50;;;;;;4954543;28;20235;-45
2021/07/02 12:31:57;;;;;;;3.75;3.45;;;23.00;79.70;;;;;;4954616;28;20210;-46
2021/07/02 12:34:27;;;;;;;4.15;3.85;;;23.40;78.10;;;;;;4954842;28;20243;-46
2021/07/02 12:37:00;;;;;;;3.78;3.47;;;23.80;76.60;;;;;;4954564;28;20221;-45
2021/07/02 12:39:31;;;;;;;4.28;3.58;;;23.90;75.80;;;;;;4954535;28;20731;-43
2021/07/02 12:42:01;;;;;;;4.53;4.13;;;24.00;75.60;;;;;;4954354;28;20367;-47
2021/07/02 12:44:37;;;;;;;3.75;3.45;;;24.10;75.00;;;;;;4955301;28;20246;-43
2021/07/02 12:47:06;;;;;;;4.40;4.03;;;24.20;74.30;;;;;;4954594;28;20242;-45
2021/07/02 12:49:36;;;;;;;6.50;3.90;;;24.10;73.90;;;;;;4954479;28;20270;-46
2021/07/02 12:55:00;;;;;;;4.10;3.80;;;24.00;74.50;;;;;;4954407;28;20247;-43
2021/07/02 12:57:31;;;;;;;4.43;3.63;;;23.90;73.80;;;;;;4954569;28;20250;-46
2021/07/02 13:00:07;;;;;;;4.05;3.75;;;23.90;74.10;;;;;;4954397;28;20326;-44
2021/07/02 13:02:39;;;;;;;3.92;3.53;;;24.00;74.40;;;;;;4954454;28;20667;-45
2021/07/02 13:05:11;;;;;;;4.00;3.60;;;24.20;74.50;;;;;;4954683;28;20207;-45